createdAt,value
2023-03-14T00:00:25.031Z,0.50
2023-03-14T00:02:55.401Z,0.50
2023-03-14T00:05:22.288Z,0.20
2023-03-14T00:07:49.181Z,0.40
2023-03-14T00:10:16.451Z,0.50
2023-03-14T00:12:43.482Z,0.50
2023-03-14T00:15:11.018Z,0.30
2023-03-14T00:17:38.441Z,0.40
2023-03-14T00:20:12.088Z,0.50
2023-03-14T00:22:39.904Z,0.33
2023-03-14T00:25:09.096Z,0.40
2023-03-14T00:27:36.125Z,0.30
2023-03-14T00:30:03.676Z,0.47
2023-03-14T00:32:30.468Z,0.70
2023-03-14T00:34:57.339Z,0.70
2023-03-14T00:37:24.167Z,1.80
2023-03-14T00:39:52.671Z,1.27
2023-03-14T00:42:19.445Z,0.47
2023-03-14T00:44:46.211Z,0.40
2023-03-14T00:47:12.952Z,0.40
2023-03-14T00:49:39.667Z,0.20
2023-03-14T00:52:06.418Z,0.60
2023-03-14T00:54:33.406Z,0.30
2023-03-14T00:57:00.199Z,0.20
2023-03-14T00:59:27.004Z,0.20
2023-03-14T01:01:53.850Z,0.20
2023-03-14T01:04:20.668Z,0.20
2023-03-14T01:06:47.400Z,0.20
2023-03-14T01:09:14.146Z,0.20
2023-03-14T01:11:41.795Z,0.30
2023-03-14T01:14:08.626Z,0.20
2023-03-14T01:16:36.063Z,0.20
2023-03-14T01:19:03.693Z,0.10
2023-03-14T01:21:33.071Z,0.50
2023-03-14T01:24:02.018Z,0.20
2023-03-14T01:26:32.551Z,0.10
2023-03-14T01:29:00.168Z,0.20
2023-03-14T01:31:28.051Z,0.20
2023-03-14T01:33:55.314Z,0.20
2023-03-14T01:36:22.099Z,0.20
2023-03-14T01:38:49.048Z,0.20
2023-03-14T01:41:20.725Z,0.20
2023-03-14T01:43:47.950Z,0.20
2023-03-14T01:46:29.009Z,0.20
2023-03-14T01:49:02.466Z,0.30
2023-03-14T01:51:36.693Z,0.20
2023-03-14T01:54:10.842Z,0.30
2023-03-14T01:56:39.957Z,0.20
2023-03-14T01:59:08.853Z,0.20
2023-03-14T02:01:36.661Z,0.40
2023-03-14T02:04:07.390Z,0.23
2023-03-14T02:06:51.693Z,0.10
2023-03-14T02:09:21.445Z,0.20
2023-03-14T02:11:50.332Z,0.40
2023-03-14T02:14:37.818Z,0.30
2023-03-14T02:17:23.413Z,0.20
2023-03-14T02:20:34.834Z,0.20
2023-03-14T02:23:02.315Z,0.10
2023-03-14T02:25:49.210Z,0.30
2023-03-14T02:28:16.079Z,0.20
2023-03-14T02:30:43.352Z,0.10
2023-03-14T02:33:17.680Z,0.20
2023-03-14T02:35:57.542Z,0.30
2023-03-14T02:38:37.810Z,0.17
2023-03-14T02:41:06.266Z,0.27
2023-03-14T02:43:39.226Z,0.10
2023-03-14T02:46:17.167Z,0.20
2023-03-14T02:48:46.001Z,0.20
2023-03-14T02:51:14.780Z,0.20
2023-03-14T02:53:43.607Z,0.13
2023-03-14T02:56:12.841Z,0.20
2023-03-14T02:58:40.071Z,0.20
2023-03-14T03:01:18.306Z,0.20
2023-03-14T03:03:45.242Z,0.10
2023-03-14T03:06:12.590Z,0.40
2023-03-14T03:08:39.433Z,0.20
2023-03-14T03:11:07.210Z,0.20
2023-03-14T03:13:35.730Z,0.50
2023-03-14T03:16:04.816Z,0.20
2023-03-14T03:18:31.590Z,0.60
2023-03-14T03:21:06.808Z,0.20
2023-03-14T03:23:33.569Z,0.10
2023-03-14T03:26:00.329Z,0.20
2023-03-14T03:28:27.168Z,0.20
2023-03-14T03:30:55.077Z,0.20
2023-03-14T03:33:23.524Z,0.10
2023-03-14T03:35:51.690Z,0.10
2023-03-14T03:38:24.640Z,0.17
2023-03-14T03:40:53.597Z,0.20
2023-03-14T03:43:21.033Z,0.20
2023-03-14T03:45:49.582Z,0.30
2023-03-14T03:48:16.453Z,0.30
2023-03-14T03:50:47.588Z,0.10
2023-03-14T03:53:26.827Z,0.20
2023-03-14T03:55:59.953Z,0.30
2023-03-14T03:58:26.760Z,0.20
2023-03-14T04:00:53.539Z,0.30
2023-03-14T04:03:20.366Z,0.20
2023-03-14T04:05:47.360Z,0.20
2023-03-14T04:08:14.206Z,0.20
2023-03-14T04:10:40.961Z,0.30
2023-03-14T04:13:15.222Z,0.30
2023-03-14T04:15:44.508Z,0.30
2023-03-14T04:18:25.777Z,0.30
2023-03-14T04:20:57.772Z,0.27
2023-03-14T04:23:30.912Z,0.20
2023-03-14T04:25:57.749Z,0.20
2023-03-14T04:28:25.576Z,0.13
2023-03-14T04:30:52.812Z,0.30
2023-03-14T04:33:22.989Z,0.30
2023-03-14T04:35:57.209Z,0.40
2023-03-14T04:38:25.233Z,0.40
2023-03-14T04:40:53.180Z,0.40
2023-03-14T04:43:22.603Z,0.47
2023-03-14T04:45:58.086Z,0.30
2023-03-14T04:48:27.392Z,0.30
2023-03-14T04:50:55.251Z,0.40
2023-03-14T04:53:22.249Z,0.30
2023-03-14T04:55:53.239Z,0.50
2023-03-14T04:58:22.364Z,0.50
2023-03-14T05:00:50.675Z,0.33
2023-03-14T05:03:38.392Z,0.70
2023-03-14T05:06:14.137Z,0.40
2023-03-14T05:09:00.537Z,0.40
2023-03-14T05:11:59.769Z,0.30
2023-03-14T05:14:45.445Z,0.70
2023-03-14T05:17:50.762Z,0.50
2023-03-14T05:20:40.688Z,0.57
2023-03-14T05:23:22.810Z,0.40
2023-03-14T05:26:05.971Z,0.30
2023-03-14T05:28:52.671Z,0.40
2023-03-14T05:31:33.454Z,0.63
2023-03-14T05:34:11.581Z,0.50
2023-03-14T05:36:58.774Z,0.50
2023-03-14T05:39:44.380Z,0.53
2023-03-14T05:42:29.774Z,1.80
2023-03-14T05:45:12.268Z,2.87
2023-03-14T05:47:58.110Z,1.20
2023-03-14T05:50:58.356Z,0.70
2023-03-14T05:53:36.270Z,0.80
2023-03-14T05:56:21.778Z,0.70
2023-03-14T05:59:08.409Z,0.80
2023-03-14T06:01:54.056Z,0.70
2023-03-14T06:04:25.452Z,1.47
2023-03-14T06:06:56.352Z,0.97
2023-03-14T06:09:24.318Z,2.00
2023-03-14T06:11:53.199Z,5.60
2023-03-14T06:14:20.040Z,3.20
2023-03-14T06:16:51.706Z,0.80
2023-03-14T06:19:20.073Z,1.10
2023-03-14T06:21:47.276Z,2.13
2023-03-14T06:24:14.101Z,2.03
2023-03-14T06:26:45.772Z,0.90
2023-03-14T06:29:14.413Z,1.00
2023-03-14T06:31:41.601Z,2.00
2023-03-14T06:34:09.304Z,1.50
2023-03-14T06:36:36.125Z,0.90
2023-03-14T06:39:03.413Z,0.90
2023-03-14T06:41:33.676Z,1.10
2023-03-14T06:44:00.669Z,1.53
2023-03-14T06:46:27.934Z,2.27
2023-03-14T06:48:55.110Z,1.77
2023-03-14T06:51:22.127Z,1.53
2023-03-14T06:53:49.911Z,1.93
2023-03-14T06:56:18.129Z,1.10
2023-03-14T06:58:46.838Z,1.00
2023-03-14T07:01:25.465Z,1.00
2023-03-14T07:03:53.505Z,0.90
2023-03-14T07:06:22.659Z,0.53
2023-03-14T07:08:49.655Z,0.73
2023-03-14T07:11:17.817Z,0.50
2023-03-14T07:13:44.757Z,0.60
2023-03-14T07:16:11.813Z,0.60
2023-03-14T07:18:38.715Z,0.83
2023-03-14T07:21:07.617Z,0.73
2023-03-14T07:23:34.775Z,0.70
2023-03-14T07:26:02.139Z,0.90
2023-03-14T07:28:30.419Z,1.13
2023-03-14T07:31:02.866Z,0.90
2023-03-14T07:33:33.359Z,0.90
2023-03-14T07:36:01.216Z,0.73
2023-03-14T07:38:28.133Z,0.90
2023-03-14T07:41:13.926Z,0.83
2023-03-14T07:43:48.200Z,0.70
2023-03-14T07:46:15.544Z,0.60
2023-03-14T07:48:42.645Z,0.63
2023-03-14T07:51:09.717Z,0.70
2023-03-14T07:53:36.540Z,0.50
2023-03-14T07:56:03.364Z,0.50
2023-03-14T07:58:30.159Z,1.47
2023-03-14T08:00:59.100Z,0.40
2023-03-14T08:03:26.004Z,0.80
2023-03-14T08:05:53.012Z,0.50
2023-03-14T08:08:20.122Z,0.70
2023-03-14T08:10:47.429Z,1.10
2023-03-14T08:13:14.330Z,0.90
2023-03-14T08:15:41.217Z,0.77
2023-03-14T08:18:08.103Z,0.80
2023-03-14T08:20:34.906Z,0.93
2023-03-14T08:23:02.875Z,0.40
2023-03-14T08:25:30.100Z,0.73
2023-03-14T08:27:56.877Z,0.77
2023-03-14T08:30:24.227Z,0.63
2023-03-14T08:32:51.179Z,1.03
2023-03-14T08:35:19.535Z,0.37
2023-03-14T08:37:46.399Z,0.30
2023-03-14T08:40:13.744Z,0.40
2023-03-14T08:42:41.360Z,0.40
2023-03-14T08:45:09.330Z,0.57
2023-03-14T08:47:36.474Z,0.50
2023-03-14T08:50:05.096Z,0.40
2023-03-14T08:52:32.665Z,0.40
2023-03-14T08:54:59.869Z,0.40
2023-03-14T08:57:28.551Z,0.50
2023-03-14T08:59:56.573Z,0.40
2023-03-14T09:02:24.635Z,0.73
2023-03-14T09:04:52.401Z,0.30
2023-03-14T09:07:19.757Z,0.70
2023-03-14T09:09:46.727Z,0.40
2023-03-14T09:12:13.935Z,0.60
2023-03-14T09:14:40.826Z,0.37
2023-03-14T09:17:07.910Z,0.50
2023-03-14T09:19:34.817Z,0.30
2023-03-14T09:22:01.585Z,0.73
2023-03-14T09:24:28.533Z,0.50
2023-03-14T09:26:57.003Z,0.40
2023-03-14T09:29:24.005Z,0.50
2023-03-14T09:31:50.866Z,0.43
2023-03-14T09:34:17.996Z,0.50
2023-03-14T09:36:45.348Z,0.43
2023-03-14T09:39:12.842Z,0.60
2023-03-14T09:41:43.732Z,0.70
2023-03-14T09:44:16.789Z,0.70
2023-03-14T09:46:48.997Z,0.50
2023-03-14T09:49:28.629Z,0.47
2023-03-14T09:51:58.705Z,0.50
2023-03-14T09:54:33.625Z,0.40
2023-03-14T09:57:00.722Z,0.60
2023-03-14T09:59:29.598Z,0.40
2023-03-14T10:02:13.956Z,0.30
2023-03-14T10:04:45.100Z,0.50
2023-03-14T10:07:17.534Z,0.40
2023-03-14T10:09:46.032Z,0.40
2023-03-14T10:12:13.073Z,0.40
2023-03-14T10:14:55.400Z,0.30
2023-03-14T10:17:22.292Z,0.20
2023-03-14T10:20:00.523Z,0.40
2023-03-14T10:22:31.073Z,0.20
2023-03-14T10:25:03.622Z,0.33
2023-03-14T10:27:36.019Z,0.20
2023-03-14T10:30:07.732Z,0.40
2023-03-14T10:32:37.760Z,0.77
2023-03-14T10:35:25.004Z,0.50
2023-03-14T10:38:06.658Z,0.20
2023-03-14T10:40:40.780Z,0.67
2023-03-14T10:43:16.087Z,0.30
2023-03-14T10:45:44.624Z,0.27
2023-03-14T10:48:33.002Z,0.30
2023-03-14T10:51:18.691Z,0.30
2023-03-14T10:53:46.594Z,0.20
2023-03-14T10:56:22.245Z,0.40
2023-03-14T10:58:51.430Z,0.30
2023-03-14T11:01:36.110Z,0.30
2023-03-14T11:04:20.364Z,0.40
2023-03-14T11:07:01.191Z,0.37
2023-03-14T11:09:43.005Z,0.40
2023-03-14T11:12:31.357Z,0.40
2023-03-14T11:15:23.410Z,0.30
2023-03-14T11:17:56.103Z,0.40
2023-03-14T11:20:45.976Z,0.27
2023-03-14T11:23:34.072Z,0.40
2023-03-14T11:26:34.976Z,0.30
2023-03-14T11:29:37.893Z,0.30
2023-03-14T11:32:30.417Z,0.37
2023-03-14T11:34:59.894Z,0.10
2023-03-14T11:37:37.429Z,0.30
2023-03-14T11:40:16.179Z,0.10
2023-03-14T11:42:47.050Z,0.97
2023-03-14T11:45:36.660Z,0.30
2023-03-14T11:48:41.989Z,0.30
2023-03-14T11:51:16.405Z,0.23
2023-03-14T11:54:17.985Z,0.30
2023-03-14T11:56:51.604Z,1.80
2023-03-14T11:59:25.510Z,0.40
2023-03-14T12:02:06.653Z,0.60
2023-03-14T12:04:51.001Z,0.20
2023-03-14T12:07:25.007Z,0.50
2023-03-14T12:09:53.243Z,0.30
2023-03-14T12:12:23.142Z,0.20
2023-03-14T12:15:01.593Z,0.70
2023-03-14T12:17:44.163Z,0.50
2023-03-14T12:20:22.638Z,0.50
2023-03-14T12:22:53.540Z,0.40
2023-03-14T12:25:23.433Z,0.50
2023-03-14T12:27:56.282Z,0.57
2023-03-14T12:30:28.469Z,0.50
2023-03-14T12:33:10.708Z,0.30
2023-03-14T12:36:04.941Z,0.60
2023-03-14T12:38:37.972Z,0.30
2023-03-14T12:41:26.298Z,0.40
2023-03-14T12:43:53.574Z,0.40
2023-03-14T12:46:28.698Z,0.30
2023-03-14T12:48:56.906Z,0.30
2023-03-14T12:51:37.766Z,0.20
2023-03-14T12:54:36.537Z,0.20
2023-03-14T12:57:27.564Z,0.50
2023-03-14T12:59:59.405Z,0.20
2023-03-14T13:02:37.945Z,0.60
2023-03-14T13:05:12.595Z,0.30
2023-03-14T13:07:44.207Z,0.30
2023-03-14T13:10:11.006Z,0.20
2023-03-14T13:13:15.295Z,0.20
2023-03-14T13:15:52.220Z,0.30
2023-03-14T13:18:29.729Z,0.40
2023-03-14T13:21:14.567Z,0.30
2023-03-14T13:23:41.753Z,0.30
2023-03-14T13:26:15.921Z,0.23
2023-03-14T13:28:43.246Z,0.30
2023-03-14T13:31:25.268Z,0.30
2023-03-14T13:34:03.246Z,0.20
2023-03-14T13:36:30.394Z,0.30
2023-03-14T13:39:00.252Z,0.63
2023-03-14T13:41:28.036Z,0.80
2023-03-14T13:44:06.660Z,0.80
2023-03-14T13:46:36.199Z,2.63
2023-03-14T13:49:05.630Z,1.30
2023-03-14T13:51:36.970Z,2.07
2023-03-14T13:54:06.738Z,2.40
2023-03-14T13:56:34.389Z,1.10
2023-03-14T13:59:01.215Z,1.63
2023-03-14T14:01:33.330Z,1.13
2023-03-14T14:04:08.640Z,1.00
2023-03-14T14:06:45.073Z,1.27
2023-03-14T14:09:15.374Z,0.60
2023-03-14T14:12:14.939Z,0.60
2023-03-14T14:14:51.053Z,1.10
2023-03-14T14:17:29.497Z,1.00
2023-03-14T14:19:57.570Z,0.70
2023-03-14T14:22:24.592Z,0.77
2023-03-14T14:24:52.829Z,0.90
2023-03-14T14:27:35.956Z,0.43
2023-03-14T14:30:06.389Z,0.50
2023-03-14T14:32:38.735Z,0.50
2023-03-14T14:35:06.575Z,0.50
2023-03-14T14:37:35.736Z,0.80
2023-03-14T14:40:11.712Z,0.43
2023-03-14T14:42:42.164Z,0.20
2023-03-14T14:45:15.951Z,0.40
2023-03-14T14:47:56.264Z,0.37
2023-03-14T14:50:33.287Z,0.40
2023-03-14T14:53:19.550Z,0.50
2023-03-14T14:55:46.508Z,0.40
2023-03-14T14:58:25.030Z,0.40
2023-03-14T15:01:05.534Z,0.60
2023-03-14T15:03:34.410Z,0.43
2023-03-14T15:06:02.327Z,0.53
2023-03-14T15:08:29.793Z,0.70
2023-03-14T15:10:58.045Z,0.20
2023-03-14T15:13:24.893Z,0.60
2023-03-14T15:15:56.951Z,0.60
2023-03-14T15:18:26.042Z,0.30
2023-03-14T15:20:53.075Z,0.40
2023-03-14T15:23:23.165Z,0.70
2023-03-14T15:25:57.509Z,0.70
2023-03-14T15:28:27.296Z,0.57
2023-03-14T15:30:56.798Z,0.87
2023-03-14T15:33:24.171Z,0.67
2023-03-14T15:35:52.032Z,0.50
2023-03-14T15:38:24.314Z,0.90
2023-03-14T15:40:52.068Z,0.50
2023-03-14T15:43:19.793Z,1.50
2023-03-14T15:45:47.062Z,0.80
2023-03-14T15:48:22.171Z,2.20
2023-03-14T15:50:49.000Z,2.33
2023-03-14T15:53:16.037Z,1.23
2023-03-14T15:55:42.853Z,0.60
2023-03-14T15:58:21.048Z,0.80
2023-03-14T16:00:48.713Z,0.90
2023-03-14T16:03:15.507Z,0.73
2023-03-14T16:05:42.578Z,0.70
2023-03-14T16:08:09.532Z,0.70
2023-03-14T16:10:36.476Z,0.50
2023-03-14T16:13:03.648Z,0.80
2023-03-14T16:15:30.490Z,0.70
2023-03-14T16:17:57.695Z,1.20
2023-03-14T16:20:24.520Z,0.90
2023-03-14T16:22:51.252Z,0.40
2023-03-14T16:25:19.114Z,1.00
2023-03-14T16:27:46.120Z,0.80
2023-03-14T16:30:16.398Z,0.60
2023-03-14T16:32:45.877Z,1.00
2023-03-14T16:35:12.751Z,2.37
2023-03-14T16:37:39.501Z,2.03
2023-03-14T16:40:12.526Z,2.50
2023-03-14T16:42:54.955Z,1.43
2023-03-14T16:45:26.512Z,1.40
2023-03-14T16:47:53.215Z,0.83
2023-03-14T16:50:19.974Z,1.20
2023-03-14T16:52:48.074Z,1.50
2023-03-14T16:55:14.810Z,1.60
2023-03-14T16:57:41.660Z,0.70
2023-03-14T17:00:11.932Z,1.50
2023-03-14T17:02:38.983Z,1.60
2023-03-14T17:05:06.018Z,1.43
2023-03-14T17:07:32.876Z,1.13
2023-03-14T17:09:59.592Z,1.50
2023-03-14T17:12:26.374Z,1.27
2023-03-14T17:14:53.835Z,1.97
2023-03-14T17:17:20.689Z,1.30
2023-03-14T17:19:47.496Z,1.87
2023-03-14T17:22:23.285Z,1.37
2023-03-14T17:24:51.442Z,1.73
2023-03-14T17:27:20.336Z,2.20
2023-03-14T17:29:48.517Z,3.43
2023-03-14T17:32:16.747Z,3.30
2023-03-14T17:34:43.779Z,2.27
2023-03-14T17:37:10.907Z,1.50
2023-03-14T17:39:38.885Z,0.97
2023-03-14T17:42:06.922Z,1.37
2023-03-14T17:44:34.803Z,1.47
2023-03-14T17:47:02.102Z,1.10
2023-03-14T17:49:29.104Z,0.97
2023-03-14T17:51:55.863Z,1.30
2023-03-14T17:54:22.726Z,0.93
2023-03-14T17:56:49.643Z,0.77
2023-03-14T17:59:16.821Z,1.00
2023-03-14T18:01:43.687Z,1.23
2023-03-14T18:04:10.560Z,1.23
2023-03-14T18:06:37.409Z,1.03
2023-03-14T18:09:05.694Z,0.60
2023-03-14T18:11:32.708Z,0.80
2023-03-14T18:14:01.670Z,0.97
2023-03-14T18:16:28.953Z,1.00
2023-03-14T18:18:57.829Z,0.70
2023-03-14T18:21:24.594Z,0.70
2023-03-14T18:23:51.556Z,0.80
2023-03-14T18:26:18.883Z,0.60
2023-03-14T18:28:46.968Z,0.80
2023-03-14T18:31:22.328Z,0.87
2023-03-14T18:33:49.557Z,1.30
2023-03-14T18:36:16.532Z,1.13
2023-03-14T18:38:43.719Z,1.30
2023-03-14T18:41:13.280Z,1.90
2023-03-14T18:43:41.006Z,0.57
2023-03-14T18:46:07.741Z,0.73
2023-03-14T18:48:34.515Z,1.20
2023-03-14T18:51:02.293Z,1.20
2023-03-14T18:53:32.374Z,0.93
2023-03-14T18:56:00.400Z,0.90
2023-03-14T18:58:28.322Z,0.90
2023-03-14T19:01:00.149Z,1.10
2023-03-14T19:03:27.104Z,1.00
2023-03-14T19:05:55.172Z,0.70
2023-03-14T19:08:26.043Z,0.70
2023-03-14T19:10:54.765Z,0.60
2023-03-14T19:13:22.387Z,0.70
2023-03-14T19:15:49.529Z,0.83
2023-03-14T19:18:16.836Z,0.80
2023-03-14T19:20:45.040Z,0.80
2023-03-14T19:23:14.116Z,1.57
2023-03-14T19:25:45.094Z,0.80
2023-03-14T19:28:11.966Z,0.90
2023-03-14T19:30:38.786Z,0.60
2023-03-14T19:33:05.626Z,0.40
2023-03-14T19:35:32.447Z,0.50
2023-03-14T19:37:59.264Z,0.90
2023-03-14T19:40:26.071Z,0.80
2023-03-14T19:42:52.867Z,1.03
2023-03-14T19:45:19.606Z,1.10
2023-03-14T19:47:46.424Z,0.70
2023-03-14T19:50:13.249Z,1.10
2023-03-14T19:52:43.872Z,0.67
2023-03-14T19:55:12.688Z,0.40
2023-03-14T19:57:39.633Z,0.70
2023-03-14T20:00:13.648Z,0.80
2023-03-14T20:02:41.725Z,0.60
2023-03-14T20:05:08.940Z,0.67
2023-03-14T20:07:35.671Z,0.83
2023-03-14T20:10:03.593Z,0.70
2023-03-14T20:12:31.705Z,0.77
2023-03-14T20:14:58.528Z,0.63
2023-03-14T20:17:26.973Z,0.73
2023-03-14T20:19:55.037Z,0.60
2023-03-14T20:22:21.774Z,0.90
2023-03-14T20:24:48.917Z,1.37
2023-03-14T20:27:15.765Z,1.40
2023-03-14T20:29:43.654Z,1.90
2023-03-14T20:32:10.691Z,0.93
2023-03-14T20:34:38.948Z,0.80
2023-03-14T20:37:05.707Z,1.60
2023-03-14T20:39:34.158Z,0.93
2023-03-14T20:42:02.245Z,0.70
2023-03-14T20:44:29.062Z,1.10
2023-03-14T20:46:57.641Z,1.20
2023-03-14T20:49:24.560Z,0.83
2023-03-14T20:51:51.283Z,0.93
2023-03-14T20:54:18.501Z,1.03
2023-03-14T20:56:46.353Z,1.10
2023-03-14T20:59:13.805Z,1.13
2023-03-14T21:01:40.833Z,0.90
2023-03-14T21:04:07.673Z,1.10
2023-03-14T21:06:34.460Z,1.13
2023-03-14T21:09:05.420Z,0.80
2023-03-14T21:11:32.510Z,0.90
2023-03-14T21:13:59.386Z,0.73
2023-03-14T21:16:26.194Z,1.20
2023-03-14T21:18:53.018Z,0.83
2023-03-14T21:21:20.056Z,0.60
2023-03-14T21:23:46.794Z,0.60
2023-03-14T21:26:13.555Z,1.03
2023-03-14T21:28:40.340Z,1.37
2023-03-14T21:31:09.739Z,1.47
2023-03-14T21:33:36.650Z,1.50
2023-03-14T21:36:04.602Z,1.87
2023-03-14T21:38:31.667Z,1.57
2023-03-14T21:40:58.577Z,1.20
2023-03-14T21:43:26.930Z,1.00
2023-03-14T21:45:54.129Z,0.97
2023-03-14T21:48:24.877Z,0.90
2023-03-14T21:50:52.072Z,1.10
2023-03-14T21:53:19.083Z,1.10
2023-03-14T21:55:46.964Z,1.10
2023-03-14T21:58:14.750Z,1.20
2023-03-14T22:00:49.220Z,1.00
2023-03-14T22:03:17.854Z,0.93
2023-03-14T22:05:46.158Z,0.90
2023-03-14T22:08:16.954Z,0.97
2023-03-14T22:10:50.788Z,1.10
2023-03-14T22:13:18.110Z,0.83
2023-03-14T22:15:46.327Z,0.90
2023-03-14T22:18:14.370Z,0.90
2023-03-14T22:20:41.574Z,1.10
2023-03-14T22:23:09.236Z,0.90
2023-03-14T22:25:38.582Z,0.90
2023-03-14T22:28:05.350Z,1.20
2023-03-14T22:30:32.118Z,0.80
2023-03-14T22:32:59.219Z,1.10
2023-03-14T22:35:26.092Z,1.23
2023-03-14T22:37:52.832Z,1.00
2023-03-14T22:40:19.711Z,0.97
2023-03-14T22:42:48.229Z,1.20
2023-03-14T22:45:15.668Z,1.20
2023-03-14T22:47:42.494Z,0.80
2023-03-14T22:50:10.016Z,1.17
2023-03-14T22:52:36.882Z,1.40
2023-03-14T22:55:03.781Z,1.20
2023-03-14T22:57:30.664Z,1.63
2023-03-14T22:59:57.399Z,1.47
2023-03-14T23:02:24.171Z,1.23
2023-03-14T23:04:50.900Z,1.37
2023-03-14T23:07:18.154Z,1.47
2023-03-14T23:09:44.925Z,1.47
2023-03-14T23:12:11.763Z,1.30
2023-03-14T23:14:38.542Z,1.77
2023-03-14T23:17:05.617Z,1.70
2023-03-14T23:19:32.606Z,1.43
2023-03-14T23:21:59.300Z,1.50
2023-03-14T23:24:26.138Z,1.57
2023-03-14T23:26:54.177Z,1.40
2023-03-14T23:29:21.137Z,1.10
2023-03-14T23:31:48.084Z,1.37
2023-03-14T23:34:14.804Z,0.97
2023-03-14T23:36:41.578Z,0.80
2023-03-14T23:39:08.968Z,0.50
2023-03-14T23:41:36.114Z,0.60
2023-03-14T23:44:04.118Z,0.40
2023-03-14T23:46:31.600Z,0.60
2023-03-14T23:48:58.521Z,0.57
2023-03-14T23:51:25.438Z,0.70
2023-03-14T23:53:52.361Z,0.90
2023-03-14T23:56:19.295Z,0.67
2023-03-14T23:58:46.136Z,0.50
